首页
METAR-TAF:

METAR-TAF

机场 :

金曼, 亞利桑那州, 美国

纬度: 35-15-28N, 经度: 113-55-59W, 海拔: 1050米

当前天气观测

该预报发布于43分钟前的04:51 UTC
风速7节,风向
温度 27°C
湿度 26%
气压 1017 hPa
能見度: 16.1公里
天空无云

METAR: KIGM 180451Z AUTO 18007KT 10SM CLR 27/06 A3002 RMK AO2 SLP083 T02720056

时间: 22:34 (05:34 UTC)


TAF: 丢失

超过4000个机场的气象观测和天气预报(METAR&TAF报告)。

可查询的气象台以黄色和红色小点在地图上表示。

将鼠标移到小点上方,可查看气象台名称。

然后点击查看天气观测和预报。

如需切换地图:点击带黑十字的绿色按钮放大地图;点击带横线的绿色按钮缩小地图;或者点击绿色箭头查看邻近地区的地图。


METAR-TAF: